createdAt,value
2018-06-25T00:01:31.785Z,5.23
2018-06-25T00:03:59.304Z,4.30
2018-06-25T00:06:26.883Z,5.47
2018-06-25T00:08:54.404Z,5.00
2018-06-25T00:11:22.911Z,4.93
2018-06-25T00:13:50.432Z,5.67
2018-06-25T00:16:18.736Z,4.20
2018-06-25T00:18:46.297Z,4.70
2018-06-25T00:21:13.824Z,4.90
2018-06-25T00:23:42.146Z,4.73
2018-06-25T00:26:09.710Z,4.57
2018-06-25T00:28:37.256Z,4.70
2018-06-25T00:31:04.780Z,5.80
2018-06-25T00:33:34.295Z,5.40
2018-06-25T00:36:01.829Z,4.97
2018-06-25T00:38:29.387Z,5.10
2018-06-25T00:40:57.869Z,4.53
2018-06-25T00:43:25.434Z,4.57
2018-06-25T00:45:52.999Z,4.70
2018-06-25T00:48:21.345Z,4.80
2018-06-25T00:50:48.882Z,5.57
2018-06-25T00:53:16.408Z,4.60
2018-06-25T00:55:43.956Z,4.60
2018-06-25T00:58:11.480Z,4.40
2018-06-25T01:00:39.032Z,4.50
2018-06-25T01:03:06.612Z,4.80
2018-06-25T01:05:34.135Z,5.13
2018-06-25T01:08:01.654Z,4.03
2018-06-25T01:10:29.951Z,4.30
2018-06-25T01:12:57.508Z,4.53
2018-06-25T01:15:25.056Z,4.33
2018-06-25T01:17:52.614Z,3.97
2018-06-25T01:20:20.139Z,4.70
2018-06-25T01:22:47.660Z,5.23
2018-06-25T01:25:15.312Z,4.17
2018-06-25T01:27:42.841Z,4.33
2018-06-25T01:30:12.349Z,3.90
2018-06-25T01:32:39.893Z,5.33
2018-06-25T01:35:07.690Z,4.30
2018-06-25T01:37:35.253Z,4.37
2018-06-25T01:40:02.774Z,4.57
2018-06-25T01:42:30.324Z,4.77
2018-06-25T01:44:57.869Z,3.80
2018-06-25T01:47:25.404Z,5.20
2018-06-25T01:49:52.964Z,4.90
2018-06-25T01:52:20.486Z,5.30
2018-06-25T01:54:48.028Z,4.30
2018-06-25T01:57:15.643Z,4.50
2018-06-25T01:59:43.201Z,4.60
2018-06-25T02:02:10.743Z,4.57
2018-06-25T02:04:38.263Z,4.50
2018-06-25T02:07:06.580Z,5.33
2018-06-25T02:09:34.101Z,4.70
2018-06-25T02:12:02.422Z,4.30
2018-06-25T02:14:29.936Z,4.33
2018-06-25T02:16:58.251Z,4.60
2018-06-25T02:19:25.772Z,4.37
2018-06-25T02:21:54.068Z,4.83
2018-06-25T02:24:22.464Z,4.80
2018-06-25T02:26:50.013Z,4.60
2018-06-25T02:29:17.576Z,3.87
2018-06-25T02:31:45.104Z,5.20
2018-06-25T02:34:12.688Z,4.20
2018-06-25T02:36:40.224Z,4.53
2018-06-25T02:39:07.771Z,4.10
2018-06-25T02:41:35.341Z,4.30
2018-06-25T02:44:02.877Z,4.30
2018-06-25T02:46:30.440Z,4.60
2018-06-25T02:48:57.966Z,4.90
2018-06-25T02:51:25.496Z,4.33
2018-06-25T02:53:53.809Z,5.00
2018-06-25T02:56:21.392Z,4.50
2018-06-25T02:58:48.940Z,4.80
2018-06-25T03:01:16.461Z,4.83
2018-06-25T03:03:43.984Z,5.83
2018-06-25T03:06:13.221Z,5.27
2018-06-25T03:08:40.747Z,5.60
2018-06-25T03:11:08.304Z,5.03
2018-06-25T03:13:36.630Z,5.40
2018-06-25T03:16:04.162Z,5.20
2018-06-25T03:18:31.697Z,5.03
2018-06-25T03:21:00.063Z,4.93
2018-06-25T03:23:28.357Z,5.10
2018-06-25T03:25:56.693Z,5.10
2018-06-25T03:28:24.240Z,5.30
2018-06-25T03:30:51.799Z,5.23
2018-06-25T03:33:19.315Z,5.33
2018-06-25T03:35:47.641Z,4.90
2018-06-25T03:38:15.162Z,4.90
2018-06-25T03:40:42.690Z,5.60
2018-06-25T03:43:10.258Z,4.57
2018-06-25T03:45:37.809Z,5.40
2018-06-25T03:48:05.383Z,5.00
2018-06-25T03:50:32.913Z,5.20
2018-06-25T03:53:02.448Z,5.10
2018-06-25T03:55:30.744Z,5.40
2018-06-25T03:57:59.060Z,4.90
2018-06-25T04:00:26.608Z,5.97
2018-06-25T04:02:54.170Z,5.13
2018-06-25T04:05:22.600Z,4.90
2018-06-25T04:07:50.132Z,5.57
2018-06-25T04:10:17.702Z,4.80
2018-06-25T04:12:45.240Z,5.13
2018-06-25T04:15:12.805Z,5.63
2018-06-25T04:17:40.331Z,5.13
2018-06-25T04:20:07.860Z,4.80
2018-06-25T04:22:35.407Z,5.53
2018-06-25T04:25:02.967Z,5.17
2018-06-25T04:27:30.500Z,4.90
2018-06-25T04:29:58.786Z,5.23
2018-06-25T04:32:26.346Z,5.73
2018-06-25T04:34:54.851Z,4.90
2018-06-25T04:37:23.205Z,5.83
2018-06-25T04:39:50.762Z,4.90
2018-06-25T04:42:18.289Z,4.37
2018-06-25T04:44:47.812Z,5.20
2018-06-25T04:47:17.299Z,4.53
2018-06-25T04:49:44.824Z,4.80
2018-06-25T04:52:13.132Z,4.60
2018-06-25T04:54:40.660Z,4.90
2018-06-25T04:57:08.951Z,6.77
2018-06-25T04:59:38.489Z,4.70
2018-06-25T05:02:06.012Z,5.60
2018-06-25T05:04:33.560Z,5.63
2018-06-25T05:07:01.861Z,6.33
2018-06-25T05:09:29.422Z,7.13
2018-06-25T05:11:56.958Z,5.30
2018-06-25T05:14:24.492Z,5.80
2018-06-25T05:16:53.749Z,5.37
2018-06-25T05:19:21.268Z,5.70
2018-06-25T05:21:49.695Z,5.67
2018-06-25T05:24:17.232Z,6.33
2018-06-25T05:26:44.790Z,6.57
2018-06-25T05:29:13.363Z,6.47
2018-06-25T05:31:41.608Z,6.43
2018-06-25T05:34:10.031Z,6.20
2018-06-25T05:36:37.591Z,5.37
2018-06-25T05:39:07.154Z,5.30
2018-06-25T05:41:34.682Z,5.40
2018-06-25T05:44:04.186Z,5.63
2018-06-25T05:46:31.725Z,5.97
2018-06-25T05:48:59.321Z,5.40
2018-06-25T05:51:26.865Z,5.83
2018-06-25T05:53:54.423Z,5.60
2018-06-25T05:56:21.960Z,5.30
2018-06-25T05:58:49.559Z,5.60
2018-06-25T06:01:17.077Z,5.23
2018-06-25T06:03:44.628Z,5.53
2018-06-25T06:06:14.106Z,6.07
2018-06-25T06:08:42.601Z,5.80
2018-06-25T06:11:12.052Z,6.43
2018-06-25T06:13:39.593Z,7.20
2018-06-25T06:16:07.146Z,6.60
2018-06-25T06:18:34.721Z,6.43
2018-06-25T06:21:02.247Z,7.17
2018-06-25T06:23:29.772Z,7.57
2018-06-25T06:25:58.291Z,7.23
2018-06-25T06:28:26.801Z,7.47
2018-06-25T06:30:55.290Z,6.93
2018-06-25T06:33:22.844Z,7.60
2018-06-25T06:35:51.336Z,6.73
2018-06-25T06:38:19.023Z,6.97
2018-06-25T06:40:46.591Z,6.90
2018-06-25T06:43:14.904Z,6.87
2018-06-25T06:45:42.440Z,6.50
2018-06-25T06:48:10.926Z,6.23
2018-06-25T06:50:38.472Z,6.07
2018-06-25T06:53:06.005Z,5.93
2018-06-25T06:55:35.127Z,5.67
2018-06-25T06:58:03.440Z,6.40
2018-06-25T07:00:30.965Z,6.00
2018-06-25T07:02:59.574Z,6.17
2018-06-25T07:05:27.101Z,6.03
2018-06-25T07:07:54.653Z,6.00
2018-06-25T07:10:22.298Z,5.50
2018-06-25T07:12:49.797Z,6.37
2018-06-25T07:15:17.327Z,5.83
2018-06-25T07:17:47.588Z,7.53
2018-06-25T07:20:15.116Z,6.00
2018-06-25T07:22:42.707Z,5.20
2018-06-25T07:25:10.232Z,5.50
2018-06-25T07:27:37.821Z,5.63
2018-06-25T07:30:05.393Z,5.30
2018-06-25T07:32:32.938Z,4.87
2018-06-25T07:35:00.477Z,5.43
2018-06-25T07:37:29.890Z,5.20
2018-06-25T07:39:57.972Z,4.77
2018-06-25T07:42:25.576Z,4.53
2018-06-25T07:44:53.136Z,5.53
2018-06-25T07:47:20.755Z,11.50
2018-06-25T07:49:48.245Z,5.50
2018-06-25T07:52:16.737Z,4.50
2018-06-25T07:54:44.266Z,4.63
2018-06-25T07:57:11.821Z,5.17
2018-06-25T07:59:39.348Z,4.87
2018-06-25T08:02:06.907Z,4.87
2018-06-25T08:04:35.220Z,5.10
2018-06-25T08:07:02.745Z,5.17
2018-06-25T08:09:30.312Z,5.23
2018-06-25T08:11:57.849Z,6.07
2018-06-25T08:14:25.375Z,6.00
2018-06-25T08:16:53.011Z,5.27
2018-06-25T08:19:20.532Z,5.33
2018-06-25T08:21:48.860Z,5.27
2018-06-25T08:24:16.408Z,5.80
2018-06-25T08:26:44.054Z,4.83
2018-06-25T08:29:11.767Z,5.10
2018-06-25T08:31:40.286Z,4.40
2018-06-25T08:34:08.857Z,5.70
2018-06-25T08:36:38.320Z,6.70
2018-06-25T08:39:05.937Z,7.50
2018-06-25T08:41:33.484Z,5.20
2018-06-25T08:44:02.932Z,9.23
2018-06-25T08:46:30.517Z,5.47
2018-06-25T08:48:58.369Z,5.60
2018-06-25T08:51:25.923Z,5.37
2018-06-25T08:53:53.448Z,5.60
2018-06-25T08:56:21.006Z,6.27
2018-06-25T08:58:48.528Z,5.83
2018-06-25T09:01:17.159Z,6.37
2018-06-25T09:03:45.544Z,6.17
2018-06-25T09:06:13.073Z,5.30
2018-06-25T09:08:40.629Z,5.23
2018-06-25T09:11:09.034Z,5.10
2018-06-25T09:13:36.561Z,4.60
2018-06-25T09:16:04.225Z,3.93
2018-06-25T09:18:32.765Z,4.13
2018-06-25T09:21:00.317Z,4.87
2018-06-25T09:23:27.849Z,5.00
2018-06-25T09:25:55.418Z,4.60
2018-06-25T09:28:22.990Z,3.90
2018-06-25T09:30:50.523Z,4.40
2018-06-25T09:33:18.996Z,4.33
2018-06-25T09:35:47.529Z,4.33
2018-06-25T09:38:15.065Z,4.30
2018-06-25T09:40:42.596Z,4.00
2018-06-25T09:43:10.153Z,3.73
2018-06-25T09:45:37.713Z,4.70
2018-06-25T09:48:05.280Z,4.13
2018-06-25T09:50:33.873Z,4.00
2018-06-25T09:53:01.392Z,4.37
2018-06-25T09:55:29.714Z,4.70
2018-06-25T09:57:57.263Z,4.40
2018-06-25T10:00:24.793Z,5.67
2018-06-25T10:02:53.118Z,4.40
2018-06-25T10:05:20.656Z,4.10
2018-06-25T10:07:48.216Z,4.03
2018-06-25T10:10:15.748Z,4.53
2018-06-25T10:12:44.062Z,7.67
2018-06-25T10:15:12.607Z,5.73
2018-06-25T10:17:40.940Z,4.30
2018-06-25T10:20:08.496Z,6.47
2018-06-25T10:22:37.003Z,4.17
2018-06-25T10:25:05.488Z,3.43
2018-06-25T10:27:33.043Z,3.97
2018-06-25T10:30:01.540Z,3.30
2018-06-25T10:32:29.860Z,3.40
2018-06-25T10:34:57.433Z,3.80
2018-06-25T10:37:24.960Z,3.00
2018-06-25T10:39:52.563Z,4.70
2018-06-25T10:42:20.141Z,2.97
2018-06-25T10:44:47.651Z,2.90
2018-06-25T10:47:15.208Z,3.00
2018-06-25T10:49:42.768Z,2.80
2018-06-25T10:52:10.326Z,2.70
2018-06-25T10:54:37.852Z,3.17
2018-06-25T10:57:06.396Z,3.17
2018-06-25T10:59:34.072Z,2.30
2018-06-25T11:02:01.521Z,2.60
2018-06-25T11:04:29.084Z,2.60
2018-06-25T11:06:56.647Z,2.40
2018-06-25T11:09:25.379Z,2.40
2018-06-25T11:11:52.900Z,3.03
2018-06-25T11:14:20.450Z,2.93
2018-06-25T11:16:47.973Z,2.70
2018-06-25T11:19:15.523Z,2.93
2018-06-25T11:21:43.053Z,2.70
2018-06-25T11:24:11.343Z,2.93
2018-06-25T11:26:38.899Z,2.67
2018-06-25T11:29:06.432Z,2.60
2018-06-25T11:31:33.988Z,2.50
2018-06-25T11:34:01.525Z,2.30
2018-06-25T11:36:29.115Z,2.50
2018-06-25T11:38:57.444Z,1.87
2018-06-25T11:41:26.028Z,1.80
2018-06-25T11:43:53.560Z,2.10
2018-06-25T11:46:21.170Z,2.07
2018-06-25T11:48:48.704Z,1.87
2018-06-25T11:51:16.263Z,2.37
2018-06-25T11:53:43.781Z,2.10
2018-06-25T11:56:12.097Z,1.83
2018-06-25T11:58:41.581Z,1.90
2018-06-25T12:01:10.099Z,2.13
2018-06-25T12:03:37.629Z,1.67
2018-06-25T12:06:05.184Z,1.40
2018-06-25T12:08:32.716Z,2.27
2018-06-25T12:11:00.278Z,2.03
2018-06-25T12:13:28.590Z,1.60
2018-06-25T12:15:56.118Z,2.20
2018-06-25T12:18:24.445Z,1.77
2018-06-25T12:20:51.973Z,1.67
2018-06-25T12:23:19.496Z,1.57
2018-06-25T12:25:47.053Z,1.50
2018-06-25T12:28:14.572Z,1.83
2018-06-25T12:30:42.128Z,1.47
2018-06-25T12:33:10.597Z,1.63
2018-06-25T12:35:40.134Z,2.43
2018-06-25T12:38:07.697Z,1.60
2018-06-25T12:40:35.217Z,1.50
2018-06-25T12:43:02.774Z,1.50
2018-06-25T12:45:31.288Z,1.57
2018-06-25T12:47:58.890Z,1.30
2018-06-25T12:50:29.156Z,1.40
2018-06-25T12:52:56.726Z,1.30
2018-06-25T12:55:24.251Z,1.50
2018-06-25T12:57:51.861Z,1.50
2018-06-25T13:00:19.428Z,1.40
2018-06-25T13:02:47.756Z,1.53
2018-06-25T13:05:15.378Z,1.20
2018-06-25T13:07:43.661Z,1.30
2018-06-25T13:10:11.978Z,1.20
2018-06-25T13:12:39.532Z,1.20
2018-06-25T13:15:07.107Z,1.90
2018-06-25T13:17:36.604Z,1.30
2018-06-25T13:20:04.137Z,3.13
2018-06-25T13:22:31.664Z,1.70
2018-06-25T13:24:59.211Z,1.70
2018-06-25T13:27:28.698Z,1.60
2018-06-25T13:29:57.124Z,1.40
2018-06-25T13:32:25.606Z,1.60
2018-06-25T13:34:54.839Z,2.03
2018-06-25T13:37:24.378Z,2.03
2018-06-25T13:39:51.917Z,2.27
2018-06-25T13:42:19.471Z,1.30
2018-06-25T13:44:47.037Z,2.20
2018-06-25T13:47:14.585Z,1.80
2018-06-25T13:49:42.133Z,2.20
2018-06-25T13:52:09.657Z,2.40
2018-06-25T13:54:39.953Z,2.60
2018-06-25T13:57:08.535Z,1.87
2018-06-25T13:59:36.063Z,2.77
2018-06-25T14:02:03.719Z,2.10
2018-06-25T14:04:31.322Z,2.10
2018-06-25T14:06:58.884Z,2.23
2018-06-25T14:09:26.444Z,2.87
2018-06-25T14:11:53.981Z,1.80
2018-06-25T14:14:21.552Z,2.23
2018-06-25T14:16:49.280Z,2.10
2018-06-25T14:19:19.319Z,2.90
2018-06-25T14:21:46.881Z,1.90
2018-06-25T14:24:14.657Z,1.57
2018-06-25T14:26:43.150Z,1.70
2018-06-25T14:29:10.724Z,1.40
2018-06-25T14:31:38.437Z,4.33
2018-06-25T14:34:06.188Z,1.50
2018-06-25T14:36:33.714Z,1.27
2018-06-25T14:39:03.043Z,2.40
2018-06-25T14:41:30.628Z,1.60
2018-06-25T14:43:58.154Z,1.73
2018-06-25T14:46:25.716Z,2.37
2018-06-25T14:48:53.280Z,2.00
2018-06-25T14:51:20.831Z,1.50
2018-06-25T14:53:48.384Z,1.50
2018-06-25T14:56:16.801Z,1.77
2018-06-25T14:58:45.348Z,1.60
2018-06-25T15:01:12.908Z,1.77
2018-06-25T15:03:40.436Z,2.20
2018-06-25T15:06:08.005Z,2.80
2018-06-25T15:08:35.948Z,1.90
2018-06-25T15:11:03.620Z,1.60
2018-06-25T15:13:31.203Z,2.27
2018-06-25T15:15:59.538Z,1.63
2018-06-25T15:18:27.115Z,1.83
2018-06-25T15:20:54.706Z,1.50
2018-06-25T15:23:22.481Z,1.50
2018-06-25T15:25:50.049Z,1.67
2018-06-25T15:28:17.573Z,2.77
2018-06-25T15:30:45.895Z,1.70
2018-06-25T15:33:13.721Z,1.90
2018-06-25T15:35:41.251Z,1.90
2018-06-25T15:38:09.909Z,1.60
2018-06-25T15:40:40.388Z,1.80
2018-06-25T15:43:09.741Z,2.00
2018-06-25T15:45:37.284Z,2.00
2018-06-25T15:48:04.848Z,1.80
2018-06-25T15:50:32.429Z,1.87
2018-06-25T15:53:00.011Z,1.57
2018-06-25T15:55:28.370Z,1.57
2018-06-25T15:57:55.979Z,1.73
2018-06-25T16:00:24.264Z,2.07
2018-06-25T16:02:51.789Z,1.50
2018-06-25T16:05:19.356Z,1.60
2018-06-25T16:07:46.880Z,1.50
2018-06-25T16:10:14.437Z,1.67
2018-06-25T16:12:41.956Z,1.77
2018-06-25T16:15:09.493Z,1.53
2018-06-25T16:17:37.832Z,1.87
2018-06-25T16:20:05.408Z,1.67
2018-06-25T16:22:32.901Z,1.90
2018-06-25T16:25:00.462Z,1.70
2018-06-25T16:27:28.046Z,2.00
2018-06-25T16:29:55.643Z,1.90
2018-06-25T16:32:24.137Z,1.80
2018-06-25T16:34:51.676Z,2.13
2018-06-25T16:37:19.241Z,2.00
2018-06-25T16:39:47.736Z,1.77
2018-06-25T16:42:15.322Z,1.90
2018-06-25T16:44:42.906Z,1.83
2018-06-25T16:47:10.446Z,1.90
2018-06-25T16:49:38.763Z,2.10
2018-06-25T16:52:06.293Z,1.77
2018-06-25T16:54:33.808Z,1.93
2018-06-25T16:57:01.407Z,1.53
2018-06-25T16:59:28.945Z,1.90
2018-06-25T17:01:56.520Z,1.90
2018-06-25T17:04:26.796Z,1.80
2018-06-25T17:06:54.348Z,1.80
2018-06-25T17:09:21.917Z,1.90
2018-06-25T17:11:49.476Z,1.40
2018-06-25T17:14:17.014Z,1.70
2018-06-25T17:16:45.390Z,1.67
2018-06-25T17:19:13.028Z,1.77
2018-06-25T17:21:40.597Z,1.90
2018-06-25T17:24:08.173Z,2.53
2018-06-25T17:26:35.789Z,1.77
2018-06-25T17:29:04.208Z,2.33
2018-06-25T17:31:31.767Z,2.00
2018-06-25T17:33:59.327Z,2.40
2018-06-25T17:36:26.886Z,2.13
2018-06-25T17:38:54.491Z,2.20
2018-06-25T17:41:22.020Z,1.90
2018-06-25T17:43:49.601Z,2.23
2018-06-25T17:46:18.136Z,2.17
2018-06-25T17:48:45.691Z,2.63
2018-06-25T17:51:13.230Z,2.30
2018-06-25T17:53:41.550Z,2.23
2018-06-25T17:56:09.114Z,2.20
2018-06-25T17:58:36.672Z,2.00
2018-06-25T18:01:04.235Z,2.20
2018-06-25T18:03:31.991Z,2.20
2018-06-25T18:05:59.515Z,2.43
2018-06-25T18:08:29.056Z,2.07
2018-06-25T18:10:56.591Z,1.90
2018-06-25T18:13:24.371Z,2.20
2018-06-25T18:15:51.893Z,2.57
2018-06-25T18:18:20.324Z,2.07
2018-06-25T18:20:47.891Z,2.50
2018-06-25T18:23:15.438Z,2.40
2018-06-25T18:25:43.049Z,2.50
2018-06-25T18:28:13.350Z,2.30
2018-06-25T18:30:40.877Z,2.60
2018-06-25T18:33:08.442Z,2.40
2018-06-25T18:35:36.005Z,2.80
2018-06-25T18:38:03.549Z,3.20
2018-06-25T18:40:31.114Z,2.60
2018-06-25T18:42:58.644Z,2.87
2018-06-25T18:45:26.218Z,2.47
2018-06-25T18:47:53.764Z,3.10
2018-06-25T18:50:21.317Z,2.50
2018-06-25T18:52:48.918Z,2.90
2018-06-25T18:55:16.472Z,2.93
2018-06-25T18:57:45.384Z,2.60
2018-06-25T19:00:13.005Z,2.80
2018-06-25T19:02:40.973Z,2.30
2018-06-25T19:05:08.600Z,2.67
2018-06-25T19:07:36.945Z,2.47
2018-06-25T19:10:05.456Z,3.40
2018-06-25T19:12:33.033Z,6.43
2018-06-25T19:15:01.341Z,2.73
2018-06-25T19:17:28.938Z,2.20
2018-06-25T19:19:56.528Z,2.53
2018-06-25T19:22:24.077Z,2.50
2018-06-25T19:24:53.059Z,2.60
2018-06-25T19:27:21.354Z,2.30
2018-06-25T19:29:49.776Z,2.50
2018-06-25T19:32:17.345Z,2.30
2018-06-25T19:34:44.899Z,3.20
2018-06-25T19:37:12.430Z,3.03
2018-06-25T19:39:40.201Z,3.17
2018-06-25T19:42:07.925Z,3.03
2018-06-25T19:44:35.605Z,3.00
2018-06-25T19:47:03.924Z,3.17
2018-06-25T19:49:31.489Z,3.33
2018-06-25T19:51:59.017Z,3.07
2018-06-25T19:54:26.602Z,3.07
2018-06-25T19:56:54.194Z,3.20
2018-06-25T19:59:21.750Z,4.90
2018-06-25T20:01:49.321Z,3.57
2018-06-25T20:04:17.608Z,3.20
2018-06-25T20:06:45.932Z,3.40
2018-06-25T20:09:14.757Z,3.17
2018-06-25T20:14:23.920Z,2.93
2018-06-25T20:16:51.464Z,3.57
2018-06-25T20:19:19.037Z,3.70
2018-06-25T20:21:48.565Z,3.70
2018-06-25T20:24:18.120Z,4.23
2018-06-25T20:26:47.563Z,3.70
2018-06-25T20:29:20.289Z,3.50
2018-06-25T20:31:47.824Z,3.70
2018-06-25T20:34:15.371Z,4.00
2018-06-25T20:36:42.937Z,3.87
2018-06-25T20:39:10.469Z,3.60
2018-06-25T20:41:38.816Z,4.37
2018-06-25T20:44:06.408Z,4.00
2018-06-25T20:46:34.735Z,4.23
2018-06-25T20:49:02.301Z,4.07
2018-06-25T20:51:29.820Z,3.90
2018-06-25T20:53:57.378Z,3.70
2018-06-25T20:56:24.932Z,3.77
2018-06-25T20:58:52.493Z,3.67
2018-06-25T21:01:20.822Z,3.53
2018-06-25T21:03:48.355Z,3.57
2018-06-25T21:06:15.909Z,3.90
2018-06-25T21:08:44.273Z,4.00
2018-06-25T21:11:11.836Z,3.63
2018-06-25T21:13:39.366Z,4.00
2018-06-25T21:16:06.928Z,3.57
2018-06-25T21:18:35.248Z,4.80
2018-06-25T21:21:02.925Z,3.40
2018-06-25T21:23:30.450Z,3.60
2018-06-25T21:25:58.018Z,3.22
2018-06-25T21:28:25.545Z,3.53
2018-06-25T21:30:53.880Z,3.40
2018-06-25T21:33:21.408Z,3.57
2018-06-25T21:35:48.971Z,5.80
2018-06-25T21:38:16.570Z,5.03
2018-06-25T21:40:44.102Z,5.70
2018-06-25T21:43:11.663Z,4.37
2018-06-25T21:45:39.216Z,4.30
2018-06-25T21:48:06.746Z,4.10
2018-06-25T21:50:34.310Z,3.43
2018-06-25T21:53:01.857Z,3.77
2018-06-25T21:55:30.150Z,3.67
2018-06-25T21:57:57.709Z,3.63
2018-06-25T22:00:25.236Z,3.60
2018-06-25T22:02:52.753Z,4.17
2018-06-25T22:05:20.312Z,3.40
2018-06-25T22:07:48.340Z,3.60
2018-06-25T22:10:16.039Z,3.70
2018-06-25T22:12:43.706Z,4.00
2018-06-25T22:15:12.592Z,3.53
2018-06-25T22:17:40.342Z,3.80
2018-06-25T22:20:07.874Z,3.93
2018-06-25T22:22:35.437Z,3.90
2018-06-25T22:25:02.965Z,3.70
2018-06-25T22:27:30.549Z,3.80
2018-06-25T22:29:58.254Z,3.97
2018-06-25T22:32:26.328Z,3.50
2018-06-25T22:34:54.240Z,4.17
2018-06-25T22:37:21.817Z,3.60
2018-06-25T22:39:51.113Z,3.77
2018-06-25T22:42:19.492Z,3.87
2018-06-25T22:44:47.013Z,3.43
2018-06-25T22:47:14.572Z,4.23
2018-06-25T22:49:42.098Z,4.17
2018-06-25T22:52:09.835Z,3.53
2018-06-25T22:54:37.408Z,3.83
2018-06-25T22:57:04.933Z,3.60
2018-06-25T22:59:32.470Z,3.60
2018-06-25T23:02:00.031Z,3.37
2018-06-25T23:04:27.581Z,3.50
2018-06-25T23:06:56.132Z,3.50
2018-06-25T23:09:23.685Z,3.50
2018-06-25T23:11:51.218Z,3.70
2018-06-25T23:14:19.538Z,3.50
2018-06-25T23:16:47.080Z,3.23
2018-06-25T23:19:14.664Z,3.67
2018-06-25T23:21:42.202Z,3.10
2018-06-25T23:24:09.760Z,3.20
2018-06-25T23:26:37.402Z,7.70
2018-06-25T23:29:05.749Z,2.70
2018-06-25T23:31:33.277Z,3.30
2018-06-25T23:34:00.849Z,4.40
2018-06-25T23:36:28.377Z,3.07
2018-06-25T23:38:55.925Z,3.23
2018-06-25T23:41:25.201Z,3.30
2018-06-25T23:43:53.567Z,3.07
2018-06-25T23:46:21.113Z,3.30
2018-06-25T23:48:48.840Z,2.87
2018-06-25T23:51:17.164Z,3.53
2018-06-25T23:53:44.688Z,3.23
2018-06-25T23:56:12.239Z,3.93
2018-06-25T23:58:39.781Z,3.07
